Time;durP1;ratioP1;P1;durP2;ratioP2;P2;SDS_P1;SDS_P2;PMS_P1;PMS_P2;Temp;Humidity;BMP_temperature;BMP_pressure;BME280_temperature;BME280_humidity;BME280_pressure;Samples;Min_cycle;Max_cycle;Signal;HPM_P1;HPM_P2
2023/04/10 00:01:42;;;;;;;;;;;;;;;5.75;100.00;99928.91;5070440;28;980;-51
2023/04/10 00:04:09;;;;;;;;;;;;;;;5.73;100.00;99927.28;5071669;28;873;-49
2023/04/10 00:06:36;;;;;;;;;;;;;;;5.80;100.00;99923.09;5071801;28;841;-51
2023/04/10 00:09:03;;;;;;;;;;;;;;;5.75;100.00;99918.72;5071894;28;949;-49
2023/04/10 00:11:29;;;;;;;;;;;;;;;5.75;100.00;99920.66;5071402;28;1898;-52
2023/04/10 00:13:56;;;;;;;;;;;;;;;5.66;100.00;99912.69;5071807;28;834;-48
2023/04/10 00:16:23;;;;;;;;;;;;;;;5.63;100.00;99916.16;5071371;28;884;-52
2023/04/10 00:18:49;;;;;;;;;;;;;;;5.62;100.00;99907.13;5071503;28;904;-48
2023/04/10 00:21:16;;;;;;;;;;;;;;;5.61;100.00;99902.81;5071281;28;929;-53
2023/04/10 00:23:43;;;;;;;;;;;;;;;5.64;100.00;99899.34;5071376;28;921;-50
2023/04/10 00:26:09;;;;;;;;;;;;;;;5.65;100.00;99889.94;5071254;28;872;-49
2023/04/10 00:28:39;;;;;;;;;;;;;;;5.66;100.00;99888.00;5071329;28;890;-51
2023/04/10 00:31:06;;;;;;;;;;;;;;;5.63;100.00;99891.47;5075113;28;1952;-52
2023/04/10 00:33:33;;;;;;;;;;;;;;;5.64;100.00;99880.13;5075682;28;814;-52
2023/04/10 00:36:00;;;;;;;;;;;;;;;5.62;100.00;99876.19;5075325;28;869;-51
2023/04/10 00:38:26;;;;;;;;;;;;;;;5.63;100.00;99877.75;5075870;28;818;-52
2023/04/10 00:40:53;;;;;;;;;;;;;;;5.69;100.00;99868.06;5075307;28;819;-49
2023/04/10 00:43:20;;;;;;;;;;;;;;;5.75;100.00;99877.56;5075149;28;861;-48
2023/04/10 00:45:47;;;;;;;;;;;;;;;5.80;100.00;99865.50;5075154;28;850;-49
2023/04/10 00:48:14;;;;;;;;;;;;;;;5.81;100.00;99856.91;5075031;28;990;-48
2023/04/10 00:50:40;;;;;;;;;;;;;;;5.88;100.00;99851.50;5075117;28;849;-48
2023/04/10 00:53:07;;;;;;;;;;;;;;;5.97;100.00;99864.19;5074931;28;1889;-49
2023/04/10 00:55:34;;;;;;;;;;;;;;;6.07;100.00;99858.09;5074906;28;794;-49
2023/04/10 00:58:01;;;;;;;;;;;;;;;6.12;100.00;99857.75;5074868;28;806;-50
2023/04/10 01:00:27;;;;;;;;;;;;;;;6.15;100.00;99854.28;5074889;28;786;-48
2023/04/10 01:02:54;;;;;;;;;;;;;;;6.19;100.00;99859.81;5073530;28;879;-50
2023/04/10 01:05:22;;;;;;;;;;;;;;;6.24;100.00;99856.75;5075093;28;861;-48
2023/04/10 01:07:53;;;;;;;;;;;;;;;6.25;100.00;99850.91;5074680;28;917;-50
2023/04/10 01:10:22;;;;;;;;;;;;;;;6.30;100.00;99849.78;5073510;28;1323;-48
2023/04/10 01:13:04;;;;;;;;;;;;;;;6.26;100.00;99848.94;5074521;28;1967;-48
2023/04/10 01:15:39;;;;;;;;;;;;;;;6.28;100.00;99847.41;5074526;28;857;-52
2023/04/10 01:18:25;;;;;;;;;;;;;;;6.28;100.00;99846.63;5074609;28;845;-48
2023/04/10 01:20:52;;;;;;;;;;;;;;;6.23;100.00;99842.25;5074442;28;897;-48
2023/04/10 01:23:31;;;;;;;;;;;;;;;6.20;100.00;99847.69;5074811;28;856;-52
2023/04/10 01:26:05;;;;;;;;;;;;;;;6.18;100.00;99841.75;5074332;28;936;-49
2023/04/10 01:28:50;;;;;;;;;;;;;;;6.13;100.00;99843.66;5074464;28;904;-49
2023/04/10 01:31:43;;;;;;;;;;;;;;;6.13;100.00;99842.88;5074262;28;1955;-50
2023/04/10 01:34:15;;;;;;;;;;;;;;;6.09;100.00;99839.31;5050713;28;1368;-49
2023/04/10 01:37:04;;;;;;;;;;;;;;;6.13;100.00;99838.19;5074484;28;853;-49
2023/04/10 01:39:35;;;;;;;;;;;;;;;6.17;100.00;99831.97;5066215;28;1867;-48
2023/04/10 01:42:04;;;;;;;;;;;;;;;6.18;100.00;99828.03;5073696;28;818;-49
2023/04/10 01:44:31;;;;;;;;;;;;;;;6.24;100.00;99826.56;5073992;28;928;-52
2023/04/10 01:46:59;;;;;;;;;;;;;;;6.27;100.00;99832.09;5073962;28;920;-53
2023/04/10 01:49:26;;;;;;;;;;;;;;;6.21;100.00;99828.09;5055984;28;862;-51
2023/04/10 01:51:57;;;;;;;;;;;;;;;6.21;100.00;99828.09;5073863;28;1885;-52
2023/04/10 01:54:32;;;;;;;;;;;;;;;6.21;100.00;99835.53;5074351;28;779;-53
2023/04/10 01:57:01;;;;;;;;;;;;;;;6.26;100.00;99836.00;5073735;28;957;-52
2023/04/10 01:59:27;;;;;;;;;;;;;;;6.32;100.00;99834.50;5073721;28;936;-50
2023/04/10 02:01:57;;;;;;;;;;;;;;;6.34;100.00;99832.19;5073849;28;813;-52
2023/04/10 02:04:27;;;;;;;;;;;;;;;6.38;100.00;99834.97;5073566;28;954;-52
2023/04/10 02:06:54;;;;;;;;;;;;;;;6.41;100.00;99831.47;5073847;28;802;-52
2023/04/10 02:09:39;;;;;;;;;;;;;;;6.46;100.00;99828.38;5073411;28;1065;-53
2023/04/10 02:12:09;;;;;;;;;;;;;;;6.43;100.00;99826.41;5073249;28;1961;-52
2023/04/10 02:14:40;;;;;;;;;;;;;;;6.42;100.00;99826.78;5073476;28;820;-49
2023/04/10 02:17:08;;;;;;;;;;;;;;;6.48;100.00;99822.53;5073422;28;833;-49
2023/04/10 02:19:36;;;;;;;;;;;;;;;6.50;100.00;99818.25;5073394;28;858;-50
2023/04/10 02:22:03;;;;;;;;;;;;;;;6.48;100.00;99820.56;5073918;28;755;-49
2023/04/10 02:24:31;;;;;;;;;;;;;;;6.50;100.00;99811.97;5073580;28;861;-48
2023/04/10 02:26:58;;;;;;;;;;;;;;;6.49;100.00;99816.69;5073465;28;904;-48
2023/04/10 02:29:24;;;;;;;;;;;;;;;6.48;100.00;99819.78;5073688;28;877;-50
2023/04/10 02:31:51;;;;;;;;;;;;;;;6.46;100.00;99800.94;5073202;28;1949;-51
2023/04/10 02:34:17;;;;;;;;;;;;;;;6.49;100.00;99808.44;5073328;28;902;-49
2023/04/10 02:36:44;;;;;;;;;;;;;;;6.56;100.00;99806.94;5072990;28;889;-49
2023/04/10 02:39:11;;;;;;;;;;;;;;;6.60;100.00;99810.53;5073016;28;897;-48
2023/04/10 02:41:37;;;;;;;;;;;;;;;6.56;100.00;99810.47;5072911;28;826;-50
2023/04/10 02:44:05;;;;;;;;;;;;;;;6.56;100.00;99810.47;5072851;28;889;-49
2023/04/10 02:46:31;;;;;;;;;;;;;;;6.59;100.00;99812.47;5072806;28;878;-50
2023/04/10 02:48:59;;;;;;;;;;;;;;;6.56;100.00;99810.47;5072805;28;858;-49
2023/04/10 02:51:26;;;;;;;;;;;;;;;6.53;100.00;99809.28;5072430;28;1890;-50
2023/04/10 02:53:52;;;;;;;;;;;;;;;6.59;100.00;99803.44;5072066;28;786;-48
2023/04/10 02:56:19;;;;;;;;;;;;;;;6.56;100.00;99801.44;5072736;28;826;-50
2023/04/10 02:58:46;;;;;;;;;;;;;;;6.53;100.00;99800.25;5072508;28;980;-48
2023/04/10 03:01:13;;;;;;;;;;;;;;;6.50;100.00;99798.25;5072736;28;892;-52
2023/04/10 03:03:39;;;;;;;;;;;;;;;6.50;100.00;99792.75;5072455;28;1098;-52
2023/04/10 03:06:06;;;;;;;;;;;;;;;6.52;100.00;99802.19;5072411;28;838;-48
2023/04/10 03:08:32;;;;;;;;;;;;;;;6.55;100.00;99800.66;5072471;28;958;-51
2023/04/10 03:10:59;;;;;;;;;;;;;;;6.61;99.81;99806.59;5072090;28;1217;-49
2023/04/10 03:13:25;;;;;;;;;;;;;;;6.61;99.79;99799.13;5072227;28;1931;-49
2023/04/10 03:15:52;;;;;;;;;;;;;;;6.61;100.00;99801.88;5072474;28;916;-53
2023/04/10 03:18:18;;;;;;;;;;;;;;;6.64;99.95;99803.13;5072226;28;845;-48
2023/04/10 03:20:46;;;;;;;;;;;;;;;6.63;99.71;99802.31;5072238;28;814;-50
2023/04/10 03:23:12;;;;;;;;;;;;;;;6.65;99.87;99797.22;5071950;28;897;-50
2023/04/10 03:25:40;;;;;;;;;;;;;;;6.64;99.62;99795.66;5072089;28;846;-53
2023/04/10 03:28:06;;;;;;;;;;;;;;;6.63;98.86;99794.06;5070895;28;881;-50
2023/04/10 03:30:35;;;;;;;;;;;;;;;6.70;98.93;99801.59;5071994;28;818;-53
2023/04/10 03:33:02;;;;;;;;;;;;;;;6.72;99.08;99797.31;5071866;28;1897;-50
2023/04/10 03:35:28;;;;;;;;;;;;;;;6.72;98.88;99800.06;5071993;28;841;-52
2023/04/10 03:37:55;;;;;;;;;;;;;;;6.83;98.28;99802.09;5070728;28;826;-51
2023/04/10 03:40:21;;;;;;;;;;;;;;;6.94;98.22;99811.28;5071906;28;806;-52
2023/04/10 03:42:47;;;;;;;;;;;;;;;6.99;98.14;99819.16;5071883;28;926;-52
2023/04/10 03:45:14;;;;;;;;;;;;;;;7.06;97.32;99827.50;5072054;28;850;-52
2023/04/10 03:47:41;;;;;;;;;;;;;;;7.15;97.62;99824.44;5072074;28;936;-53
2023/04/10 03:50:07;;;;;;;;;;;;;;;7.26;97.21;99824.53;5070393;28;878;-48
2023/04/10 03:52:34;;;;;;;;;;;;;;;7.34;96.68;99831.69;5071620;28;1951;-48
2023/04/10 03:55:00;;;;;;;;;;;;;;;7.36;96.74;99832.06;5071617;28;987;-48
2023/04/10 03:57:27;;;;;;;;;;;;;;;7.40;95.36;99832.88;5071708;28;830;-47
2023/04/10 03:59:53;;;;;;;;;;;;;;;7.44;95.43;99828.19;5071673;28;807;-49
2023/04/10 04:02:22;;;;;;;;;;;;;;;7.45;94.65;99829.78;5071563;28;997;-49
2023/04/10 04:04:48;;;;;;;;;;;;;;;7.47;95.45;99832.19;5071397;28;909;-48
2023/04/10 04:07:15;;;;;;;;;;;;;;;7.47;94.87;99826.69;5071569;28;834;-50
2023/04/10 04:09:41;;;;;;;;;;;;;;;7.52;95.52;99827.09;5071887;28;957;-48
2023/04/10 04:12:08;;;;;;;;;;;;;;;7.56;95.11;99827.13;5071200;28;1982;-51
2023/04/10 04:14:34;;;;;;;;;;;;;;;7.58;95.98;99816.53;5071521;28;904;-48
2023/04/10 04:17:01;;;;;;;;;;;;;;;7.64;96.43;99816.94;5071555;28;806;-49
2023/04/10 04:19:27;;;;;;;;;;;;;;;7.68;96.48;99810.31;5071561;28;904;-51
2023/04/10 04:21:54;;;;;;;;;;;;;;;7.72;96.11;99811.13;5071438;28;917;-49
2023/04/10 04:24:20;;;;;;;;;;;;;;;7.73;95.45;99812.72;5071486;28;837;-49
2023/04/10 04:26:47;;;;;;;;;;;;;;;7.73;95.38;99809.19;5071320;28;932;-49
2023/04/10 04:29:13;;;;;;;;;;;;;;;7.75;95.16;99807.63;5071256;28;925;-48
2023/04/10 04:31:40;;;;;;;;;;;;;;;7.77;96.06;99801.72;5071366;28;1889;-49
2023/04/10 04:34:06;;;;;;;;;;;;;;;7.81;95.42;99804.50;5071221;28;896;-50
2023/04/10 04:36:33;;;;;;;;;;;;;;;7.83;96.14;99802.16;5071349;28;798;-49
2023/04/10 04:38:59;;;;;;;;;;;;;;;7.86;96.02;99804.94;5070273;28;913;-49
2023/04/10 04:41:26;;;;;;;;;;;;;;;7.91;96.45;99801.81;5071256;28;842;-50
2023/04/10 04:43:54;;;;;;;;;;;;;;;7.91;96.32;99795.50;5071228;28;814;-50
2023/04/10 04:46:21;;;;;;;;;;;;;;;7.95;97.12;99796.31;5071148;28;885;-52
2023/04/10 04:48:47;;;;;;;;;;;;;;;7.89;96.56;99804.16;5071232;28;907;-49
2023/04/10 04:51:14;;;;;;;;;;;;;;;7.94;96.72;99794.75;5071074;28;1885;-51
2023/04/10 04:53:40;;;;;;;;;;;;;;;7.93;95.55;99801.44;5070004;28;850;-49
2023/04/10 04:56:06;;;;;;;;;;;;;;;8.00;96.45;99795.16;5071100;28;826;-52
2023/04/10 04:58:33;;;;;;;;;;;;;;;7.94;96.87;99794.75;5071171;28;876;-51
2023/04/10 05:01:00;;;;;;;;;;;;;;;7.91;95.85;99790.78;5071065;28;1230;-51
2023/04/10 05:03:27;;;;;;;;;;;;;;;7.84;96.40;99781.72;5071101;28;841;-51
2023/04/10 05:05:57;;;;;;;;;;;;;;;7.83;96.35;99782.88;5071082;28;794;-52
2023/04/10 05:08:23;;;;;;;;;;;;;;;7.85;97.10;99786.03;5071024;28;1259;-49
2023/04/10 05:10:49;;;;;;;;;;;;;;;7.79;97.29;99777.38;5070757;28;1190;-53
2023/04/10 05:13:16;;;;;;;;;;;;;;;7.78;97.29;99778.53;5071060;28;1981;-53
2023/04/10 05:15:43;;;;;;;;;;;;;;;7.77;97.17;99780.50;5072033;28;866;-49
2023/04/10 05:18:10;;;;;;;;;;;;;;;7.77;97.76;99786.00;5074661;28;900;-53
2023/04/10 05:20:36;;;;;;;;;;;;;;;7.77;97.13;99796.22;5074382;28;913;-52
2023/04/10 05:23:02;;;;;;;;;;;;;;;7.77;97.63;99793.47;5074327;28;917;-50
2023/04/10 05:25:29;;;;;;;;;;;;;;;7.75;97.31;99788.34;5073294;28;869;-49
2023/04/10 05:27:55;;;;;;;;;;;;;;;7.81;98.77;99799.78;5074556;28;854;-53
2023/04/10 05:30:22;;;;;;;;;;;;;;;7.85;98.22;99808.06;5074542;28;924;-50
2023/04/10 05:32:49;;;;;;;;;;;;;;;7.89;97.10;99811.63;5075043;28;1889;-48
2023/04/10 05:35:15;;;;;;;;;;;;;;;7.95;97.55;99805.38;5074751;28;822;-49
2023/04/10 05:37:42;;;;;;;;;;;;;;;8.03;98.19;99813.69;5074719;28;882;-47
2023/04/10 05:40:09;;;;;;;;;;;;;;;8.11;97.44;99812.53;5074883;28;830;-48
2023/04/10 05:42:35;;;;;;;;;;;;;;;8.13;96.75;99805.47;5073141;28;693;-51
2023/04/10 05:45:01;;;;;;;;;;;;;;;8.29;97.13;99821.66;5074039;28;892;-48
2023/04/10 05:47:28;;;;;;;;;;;;;;;8.34;96.08;99818.56;5074095;28;841;-48
2023/04/10 05:49:54;;;;;;;;;;;;;;;8.37;96.98;99811.47;5073896;28;886;-51
2023/04/10 05:52:21;;;;;;;;;;;;;;;8.44;96.19;99805.25;5074028;28;1889;-48
2023/04/10 05:54:47;;;;;;;;;;;;;;;8.53;96.08;99822.19;5073908;28;894;-48
2023/04/10 05:57:15;;;;;;;;;;;;;;;8.63;95.65;99812.38;5073939;28;889;-51
2023/04/10 05:59:41;;;;;;;;;;;;;;;8.73;95.60;99814.41;5073713;28;909;-49
2023/04/10 06:02:07;;;;;;;;;;;;;;;8.87;95.31;99810.88;5073749;28;882;-48
2023/04/10 06:04:34;;;;;;;;;;;;;;;8.95;95.11;99813.25;5073740;28;865;-50
2023/04/10 06:07:00;;;;;;;;;;;;;;;9.11;94.45;99818.41;5073859;28;881;-48
2023/04/10 06:09:27;;;;;;;;;;;;;;;9.17;92.89;99821.53;5073898;28;994;-49
2023/04/10 06:11:53;;;;;;;;;;;;;;;9.25;92.09;99827.88;5072085;28;1977;-51
2023/04/10 06:14:20;;;;;;;;;;;;;;;9.44;91.53;99827.47;5073494;28;1002;-49
2023/04/10 06:16:48;;;;;;;;;;;;;;;9.52;91.29;99831.03;5073469;28;845;-49
2023/04/10 06:19:16;;;;;;;;;;;;;;;9.55;90.00;99824.72;5073279;28;878;-49
2023/04/10 06:21:42;;;;;;;;;;;;;;;9.58;89.95;99827.50;5073366;28;897;-49
2023/04/10 06:24:09;;;;;;;;;;;;;;;9.64;89.81;99825.09;5073346;28;944;-49
2023/04/10 06:26:36;;;;;;;;;;;;;;;9.72;89.16;99834.16;5072522;28;878;-49
2023/04/10 06:29:03;;;;;;;;;;;;;;;9.75;88.50;99845.22;5072873;28;810;-50
2023/04/10 06:31:31;;;;;;;;;;;;;;;9.82;87.74;99844.41;5073109;28;1973;-48
2023/04/10 06:33:58;;;;;;;;;;;;;;;9.82;87.42;99834.16;5073125;28;860;-52
2023/04/10 06:36:25;;;;;;;;;;;;;;;9.93;87.84;99847.16;5073171;28;845;-49
2023/04/10 06:38:52;;;;;;;;;;;;;;;10.05;87.47;99845.94;5072943;28;894;-53
2023/04/10 06:41:19;;;;;;;;;;;;;;;10.00;87.05;99845.16;5073137;28;889;-48
2023/04/10 06:43:46;;;;;;;;;;;;;;;10.10;87.62;99837.28;5073205;28;932;-49
2023/04/10 06:46:13;;;;;;;;;;;;;;;10.21;87.40;99841.56;5073120;28;860;-49
2023/04/10 06:48:39;;;;;;;;;;;;;;;10.24;86.96;99845.50;5072723;28;894;-52
2023/04/10 06:51:06;;;;;;;;;;;;;;;10.25;86.98;99849.84;5072863;28;826;-50
2023/04/10 06:53:33;;;;;;;;;;;;;;;10.27;87.18;99847.47;5072668;28;1909;-52
2023/04/10 06:55:59;;;;;;;;;;;;;;;10.34;86.83;99849.47;5072705;28;830;-52
2023/04/10 06:58:26;;;;;;;;;;;;;;;10.50;86.37;99849.81;5072676;28;869;-50
2023/04/10 07:00:53;;;;;;;;;;;;;;;10.55;85.32;99849.38;5072894;28;814;-50
2023/04/10 07:03:20;;;;;;;;;;;;;;;10.71;85.25;99853.66;5072697;28;924;-53
2023/04/10 07:05:47;;;;;;;;;;;;;;;10.89;84.92;99859.09;5072484;28;885;-53
2023/04/10 07:08:13;;;;;;;;;;;;;;;10.97;82.17;99857.88;5072397;28;1047;-52
2023/04/10 07:10:40;;;;;;;;;;;;;;;11.18;82.20;99860.50;5072252;28;1577;-48
2023/04/10 07:13:06;;;;;;;;;;;;;;;11.33;81.60;99860.41;5072376;28;1980;-48
2023/04/10 07:15:33;;;;;;;;;;;;;;;11.48;80.21;99853.59;5072326;28;797;-49
2023/04/10 07:18:00;;;;;;;;;;;;;;;11.87;80.40;99854.44;5072204;28;861;-48
2023/04/10 07:20:27;;;;;;;;;;;;;;;12.11;77.78;99847.88;5072220;28;912;-48
2023/04/10 07:22:54;;;;;;;;;;;;;;;12.51;76.61;99848.25;5072218;28;881;-47
2023/04/10 07:25:21;;;;;;;;;;;;;;;12.36;74.21;99844.84;5072006;28;976;-50
2023/04/10 07:27:47;;;;;;;;;;;;;;;12.17;74.41;99840.69;5070848;28;753;-49
2023/04/10 07:30:14;;;;;;;;;;;;;;;12.05;74.26;99844.00;5072076;28;822;-48
2023/04/10 07:32:41;;;;;;;;;;;;;;;11.76;74.13;99835.16;5071913;28;1898;-50
2023/04/10 07:35:07;;;;;;;;;;;;;;;11.81;74.38;99831.94;5071934;28;952;-49
2023/04/10 07:37:34;;;;;;;;;;;;;;;11.95;74.25;99837.38;5071982;28;802;-48
2023/04/10 07:40:01;;;;;;;;;;;;;;;11.77;73.88;99829.19;5071563;28;905;-53
2023/04/10 07:42:28;;;;;;;;;;;;;;;11.56;73.88;99824.63;5071868;28;802;-48
2023/04/10 07:44:54;;;;;;;;;;;;;;;11.68;74.50;99834.44;5071877;28;977;-51
2023/04/10 07:47:21;;;;;;;;;;;;;;;11.53;73.81;99842.06;5071763;28;874;-48
2023/04/10 07:49:48;;;;;;;;;;;;;;;11.41;74.13;99835.06;5071787;28;871;-48
2023/04/10 07:52:15;;;;;;;;;;;;;;;11.24;74.88;99841.50;5071637;28;1871;-48
2023/04/10 07:54:41;;;;;;;;;;;;;;;11.16;75.65;99849.06;5071722;28;862;-48
2023/04/10 07:57:07;;;;;;;;;;;;;;;10.94;76.26;99844.84;5071727;28;1153;-52
2023/04/10 07:59:34;;;;;;;;;;;;;;;10.91;76.91;99848.44;5071749;28;803;-48
2023/04/10 08:02:00;;;;;;;;;;;;;;;10.96;77.46;99834.16;5071530;28;873;-48
2023/04/10 08:04:27;;;;;;;;;;;;;;;11.08;77.07;99841.22;5071651;28;838;-50
2023/04/10 08:06:53;;;;;;;;;;;;;;;11.36;76.09;99835.47;5071576;28;1052;-49
2023/04/10 08:09:20;;;;;;;;;;;;;;;11.51;74.16;99836.16;5071958;28;1023;-48
2023/04/10 08:11:46;;;;;;;;;;;;;;;11.68;74.67;99842.72;5071196;28;1901;-49
2023/04/10 08:14:12;;;;;;;;;;;;;;;11.78;73.79;99844.63;5071427;28;1022;-50
2023/04/10 08:16:39;;;;;;;;;;;;;;;11.86;72.98;99842.56;5071407;28;857;-48
2023/04/10 08:19:06;;;;;;;;;;;;;;;11.71;73.10;99857.72;5071492;28;810;-48
2023/04/10 08:21:32;;;;;;;;;;;;;;;11.52;73.99;99846.03;5071545;28;932;-48
2023/04/10 08:24:00;;;;;;;;;;;;;;;11.50;75.29;99839.31;5071520;28;901;-52
2023/04/10 08:26:27;;;;;;;;;;;;;;;11.53;75.62;99844.84;5071509;28;841;-47
2023/04/10 08:28:54;;;;;;;;;;;;;;;11.55;75.00;99830.59;5071404;28;906;-51
2023/04/10 08:31:22;;;;;;;;;;;;;;;11.64;75.32;99831.69;5071336;28;1881;-49
2023/04/10 08:33:48;;;;;;;;;;;;;;;11.56;74.14;99834.91;5071432;28;829;-50
2023/04/10 08:36:15;;;;;;;;;;;;;;;11.54;75.24;99842.84;5071309;28;802;-50
2023/04/10 08:38:42;;;;;;;;;;;;;;;11.63;74.65;99835.66;5071460;28;818;-48
2023/04/10 08:41:13;;;;;;;;;;;;;;;11.78;74.41;99830.78;5071257;28;884;-48
2023/04/10 08:43:40;;;;;;;;;;;;;;;11.78;73.73;99832.78;5071287;28;881;-49
2023/04/10 08:46:07;;;;;;;;;;;;;;;11.73;73.58;99833.97;5071034;28;936;-53
2023/04/10 08:48:59;;;;;;;;;;;;;;;11.56;74.30;99830.16;5071236;28;892;-53
2023/04/10 08:51:27;;;;;;;;;;;;;;;11.75;73.12;99828.81;5070467;28;2053;-53
2023/04/10 08:54:04;;;;;;;;;;;;;;;11.82;72.78;99822.41;5075092;28;857;-49
2023/04/10 08:56:32;;;;;;;;;;;;;;;11.78;73.39;99824.47;5073973;28;1378;-48
2023/04/10 08:59:00;;;;;;;;;;;;;;;11.60;73.46;99810.75;5075136;28;885;-48
2023/04/10 09:01:26;;;;;;;;;;;;;;;11.51;75.08;99816.78;5074997;28;810;-48
2023/04/10 09:03:52;;;;;;;;;;;;;;;11.58;75.11;99813.16;5075328;28;806;-49
2023/04/10 09:06:19;;;;;;;;;;;;;;;11.72;74.56;99820.56;5075085;28;802;-47
2023/04/10 09:08:45;;;;;;;;;;;;;;;11.97;74.58;99804.50;5075232;28;939;-47
2023/04/10 09:11:12;;;;;;;;;;;;;;;12.07;72.93;99805.56;5074965;28;1217;-47
2023/04/10 09:13:40;;;;;;;;;;;;;;;12.35;73.07;99798.91;5075048;28;1961;-48
2023/04/10 09:16:07;;;;;;;;;;;;;;;12.30;70.79;99804.94;5075018;28;869;-48
2023/04/10 09:18:44;;;;;;;;;;;;;;;12.35;71.95;99798.91;5075192;28;822;-48
2023/04/10 09:21:12;;;;;;;;;;;;;;;12.63;70.82;99788.66;5074597;28;885;-49
2023/04/10 09:23:40;;;;;;;;;;;;;;;12.81;70.86;99791.97;5074533;28;862;-49
2023/04/10 09:26:24;;;;;;;;;;;;;;;12.82;69.74;99784.44;5074457;28;854;-49
2023/04/10 09:28:58;;;;;;;;;;;;;;;12.81;70.53;99771.78;5074666;28;826;-49
2023/04/10 09:31:37;;;;;;;;;;;;;;;12.55;71.08;99773.34;5074161;28;1898;-48
2023/04/10 09:34:22;;;;;;;;;;;;;;;12.41;71.67;99763.22;5074384;28;893;-47
2023/04/10 09:37:00;;;;;;;;;;;;;;;12.25;71.49;99761.84;5074233;28;897;-48
2023/04/10 10:09:03;;;;;;;;;;;;;;;10.98;81.51;99759.88;5674703;22;1691;-69
2023/04/10 10:11:32;;;;;;;;;;;;;;;10.89;81.94;99763.09;5072794;28;1918;-69
2023/04/10 10:14:01;;;;;;;;;;;;;;;10.85;83.13;99747.75;5071216;28;1150;-71
2023/04/10 10:16:44;;;;;;;;;;;;;;;10.90;82.30;99744.53;5072606;28;806;-71
2023/04/10 10:19:30;;;;;;;;;;;;;;;11.14;83.04;99749.09;5071197;28;1247;-70
2023/04/10 10:21:59;;;;;;;;;;;;;;;11.13;84.09;99733.69;5072454;28;825;-72
2023/04/10 10:24:26;;;;;;;;;;;;;;;11.21;82.84;99729.66;5072385;28;898;-70
2023/04/10 10:26:56;;;;;;;;;;;;;;;11.30;82.34;99717.34;5072314;28;825;-71
2023/04/10 10:29:23;;;;;;;;;;;;;;;11.44;81.57;99712.47;5072298;28;881;-71
2023/04/10 10:31:51;;;;;;;;;;;;;;;11.70;81.65;99709.44;5072219;28;1894;-72
2023/04/10 10:34:17;;;;;;;;;;;;;;;11.85;80.97;99694.22;5072291;28;889;-71
2023/04/10 10:36:46;;;;;;;;;;;;;;;11.84;79.53;99696.22;5072095;28;1060;-70
2023/04/10 10:39:29;;;;;;;;;;;;;;;11.97;81.11;99690.94;5072082;28;888;-71
2023/04/10 10:42:00;;;;;;;;;;;;;;;11.99;79.39;99691.31;5072151;28;860;-71
2023/04/10 10:44:36;;;;;;;;;;;;;;;12.13;79.19;99690.34;5072096;28;888;-69
2023/04/10 10:47:24;;;;;;;;;;;;;;;12.04;79.17;99688.06;5072360;28;810;-68
2023/04/10 10:49:58;;;;;;;;;;;;;;;11.96;78.91;99683.03;5072339;28;873;-69
2023/04/10 10:52:37;;;;;;;;;;;;;;;11.95;78.98;99675.91;5071898;28;1978;-71
2023/04/10 10:55:24;;;;;;;;;;;;;;;11.96;79.46;99678.28;5071842;28;876;-72
2023/04/10 10:57:51;;;;;;;;;;;;;;;12.03;80.25;99675.44;5071921;28;833;-70
2023/04/10 11:00:18;;;;;;;;;;;;;;;12.15;79.22;99681.63;5071840;28;857;-70
2023/04/10 11:02:55;;;;;;;;;;;;;;;12.09;78.68;99686.06;5071827;28;833;-64
2023/04/10 11:05:48;;;;;;;;;;;;;;;11.94;78.77;99677.13;5071709;28;846;-70
2023/04/10 11:08:15;;;;;;;;;;;;;;;11.96;79.35;99669.97;5069350;28;1283;-70
2023/04/10 11:11:04;;;;;;;;;;;;;;;12.00;79.67;99661.63;5016194;28;1597403;-69
2023/04/10 11:13:32;;;;;;;;;;;;;;;12.12;79.21;99665.81;5071781;28;1914;-71
2023/04/10 11:16:00;;;;;;;;;;;;;;;12.17;79.34;99657.06;5072339;28;861;-70
2023/04/10 11:19:01;;;;;;;;;;;;;;;12.21;79.26;99660.56;5071515;28;1397;-71
2023/04/10 11:21:28;;;;;;;;;;;;;;;12.29;78.47;99656.50;5010395;28;1317;-71
2023/04/10 11:23:54;;;;;;;;;;;;;;;12.33;77.98;99661.97;5010719;28;969;-71
2023/04/10 11:26:43;;;;;;;;;;;;;;;12.48;78.21;99659.78;5010410;28;811;-68
2023/04/10 11:29:16;;;;;;;;;;;;;;;12.59;77.60;99654.88;5010768;28;1024;-70
2023/04/10 11:31:45;;;;;;;;;;;;;;;12.65;76.99;99656.75;5010268;28;1914;-71
2023/04/10 11:34:11;;;;;;;;;;;;;;;12.63;76.89;99659.16;5010412;28;822;-70
2023/04/10 11:36:41;;;;;;;;;;;;;;;12.57;77.01;99657.28;5010173;28;875;-71
2023/04/10 11:39:08;;;;;;;;;;;;;;;12.53;76.81;99660.09;5010474;28;814;-70
2023/04/10 11:41:36;;;;;;;;;;;;;;;12.65;77.08;99662.28;5026636;28;1311;-71
2023/04/10 11:44:04;;;;;;;;;;;;;;;12.88;76.34;99660.72;5010245;28;862;-71
2023/04/10 11:46:31;;;;;;;;;;;;;;;12.89;75.59;99662.31;5010107;28;843;-72
2023/04/10 11:49:06;;;;;;;;;;;;;;;12.77;75.56;99663.69;5010150;28;925;-71
2023/04/10 11:51:34;;;;;;;;;;;;;;;12.59;77.46;99666.75;5009954;28;1959;-71
2023/04/10 11:54:07;;;;;;;;;;;;;;;12.41;78.60;99666.22;5010069;28;807;-71
2023/04/10 11:56:34;;;;;;;;;;;;;;;12.28;79.73;99663.22;5069901;28;1066;-70
2023/04/10 11:59:01;;;;;;;;;;;;;;;12.14;80.05;99666.19;5071784;28;834;-71
2023/04/10 12:01:27;;;;;;;;;;;;;;;12.06;80.67;99657.19;5071682;28;840;-71
2023/04/10 12:03:54;;;;;;;;;;;;;;;12.14;80.29;99657.88;5071780;28;841;-68
2023/04/10 12:06:21;;;;;;;;;;;;;;;12.31;80.49;99651.31;5071656;28;915;-71
2023/04/10 12:08:51;;;;;;;;;;;;;;;12.56;79.86;99642.59;5071388;28;1209;-71
2023/04/10 12:11:19;;;;;;;;;;;;;;;12.78;79.25;99642.25;5071922;28;829;-71
2023/04/10 12:13:49;;;;;;;;;;;;;;;12.77;78.65;99635.94;5072296;28;1902;-70
2023/04/10 12:16:16;;;;;;;;;;;;;;;12.83;78.25;99644.56;5071398;28;1002;-71
2023/04/10 12:18:44;;;;;;;;;;;;;;;12.90;77.56;99629.78;5071768;28;921;-70
2023/04/10 12:21:11;;;;;;;;;;;;;;;13.09;77.60;99623.50;5071468;28;822;-71
2023/04/10 12:23:38;;;;;;;;;;;;;;;13.20;76.05;99626.88;5071456;28;834;-69
2023/04/10 12:26:14;;;;;;;;;;;;;;;13.18;76.94;99628.50;5075158;28;838;-71
2023/04/10 12:28:41;;;;;;;;;;;;;;;12.69;78.93;99628.16;5075671;28;770;-71
2023/04/10 12:31:08;;;;;;;;;;;;;;;11.94;84.01;99621.75;5075534;28;873;-70
2023/04/10 12:33:35;;;;;;;;;;;;;;;11.21;89.13;99632.06;5075672;28;1882;-72
2023/04/10 12:36:02;;;;;;;;;;;;;;;10.66;95.00;99622.69;5075609;28;892;-72
2023/04/10 12:38:39;;;;;;;;;;;;;;;10.35;99.61;99636.34;5075512;28;818;-72
2023/04/10 12:41:07;;;;;;;;;;;;;;;10.02;100.00;99632.94;5075537;28;782;-71
2023/04/10 12:43:36;;;;;;;;;;;;;;;9.76;100.00;99647.28;5075251;28;862;-71
2023/04/10 12:46:03;;;;;;;;;;;;;;;9.55;100.00;99637.88;5074014;28;1316;-71
2023/04/10 12:48:30;;;;;;;;;;;;;;;9.47;100.00;99647.34;5075393;28;814;-70
2023/04/10 12:50:56;;;;;;;;;;;;;;;9.31;100.00;99642.28;5075182;28;873;-70
2023/04/10 12:53:24;;;;;;;;;;;;;;;9.21;100.00;99645.84;5075054;28;1877;-69
2023/04/10 12:56:00;;;;;;;;;;;;;;;9.12;100.00;99657.28;5075146;28;818;-69
2023/04/10 12:58:27;;;;;;;;;;;;;;;8.95;100.00;99658.09;5074602;28;1477;-70
2023/04/10 13:00:57;;;;;;;;;;;;;;;8.68;100.00;99655.72;5074975;28;876;-65
2023/04/10 13:03:24;;;;;;;;;;;;;;;8.43;100.00;99652.97;5075116;28;845;-65
2023/04/10 13:05:52;;;;;;;;;;;;;;;8.26;100.00;99651.72;5074732;28;846;-60
2023/04/10 13:08:19;;;;;;;;;;;;;;;8.14;100.00;99652.88;5075112;28;1017;-59
2023/04/10 13:10:47;;;;;;;;;;;;;;;7.98;100.00;99653.22;5074520;28;1333;-59
2023/04/10 13:13:14;;;;;;;;;;;;;;;7.85;100.00;99643.75;5074672;28;1906;-58
2023/04/10 13:15:41;;;;;;;;;;;;;;;7.88;100.00;99640.22;5074812;28;850;-58
2023/04/10 13:18:09;;;;;;;;;;;;;;;7.81;100.00;99625.63;5074674;28;877;-57
2023/04/10 13:20:36;;;;;;;;;;;;;;;7.82;100.00;99633.50;5074856;28;909;-57
2023/04/10 13:23:03;;;;;;;;;;;;;;;7.94;100.00;99633.16;5074856;28;771;-57
2023/04/10 13:25:33;;;;;;;;;;;;;;;8.04;100.00;99633.56;5074756;28;890;-57
2023/04/10 13:28:00;;;;;;;;;;;;;;;8.04;100.00;99628.84;5074378;28;968;-57
2023/04/10 13:30:27;;;;;;;;;;;;;;;8.02;100.00;99622.16;5074354;28;889;-57
2023/04/10 13:32:54;;;;;;;;;;;;;;;8.02;100.00;99642.22;5074334;28;1889;-58
2023/04/10 13:35:21;;;;;;;;;;;;;;;7.98;100.00;99644.97;5074512;28;956;-57
2023/04/10 13:37:51;;;;;;;;;;;;;;;7.93;100.00;99661.06;5073526;28;913;-57
2023/04/10 13:40:18;;;;;;;;;;;;;;;7.86;100.00;99658.31;5074210;28;1059;-57
2023/04/10 13:42:45;;;;;;;;;;;;;;;7.80;100.00;99648.84;5074203;28;869;-57
2023/04/10 13:45:11;;;;;;;;;;;;;;;7.75;100.00;99653.53;5074087;28;881;-57